Time;durP1;ratioP1;P1;durP2;ratioP2;P2;SDS_P1;SDS_P2;PMS_P1;PMS_P2;Temp;Humidity;BMP_temperature;BMP_pressure;BME280_temperature;BME280_humidity;BME280_pressure;Samples;Min_cycle;Max_cycle;Signal;HPM_P1;HPM_P2
2024/01/15 00:01:09;;;;;;;21.87;10.50;;;;;-4.30;92811.00;;;;7402525;19;20151;-75
2024/01/15 00:03:39;;;;;;;27.30;11.70;;;;;-4.30;92815.00;;;;7404143;19;20165;-75
2024/01/15 00:06:16;;;;;;;25.57;10.70;;;;;-4.50;92805.00;;;;7401936;19;20153;-75
2024/01/15 00:08:43;;;;;;;26.17;10.50;;;;;-4.40;92814.00;;;;7403313;19;20129;-76
2024/01/15 00:11:18;;;;;;;29.00;10.77;;;;;-4.40;92813.00;;;;7403983;19;20217;-76
2024/01/15 00:13:52;;;;;;;28.07;11.50;;;;;-4.30;92812.00;;;;7405149;19;20149;-79
2024/01/15 00:16:19;;;;;;;27.70;11.77;;;;;-4.30;92806.00;;;;7409088;19;20131;-80
2024/01/15 00:18:48;;;;;;;26.17;10.97;;;;;-4.30;92802.00;;;;7408481;19;20140;-80
2024/01/15 00:21:23;;;;;;;29.73;12.27;;;;;-4.30;92797.00;;;;7409143;19;20480;-79
2024/01/15 00:23:57;;;;;;;23.67;11.00;;;;;-4.50;92797.00;;;;7408604;19;20133;-79
2024/01/15 00:26:34;;;;;;;30.23;12.53;;;;;-4.30;92798.00;;;;7405930;19;20139;-80
2024/01/15 00:29:09;;;;;;;28.47;11.13;;;;;-4.40;92800.00;;;;7406762;19;20166;-80
2024/01/15 00:31:36;;;;;;;26.90;11.63;;;;;-4.30;92791.00;;;;7405771;19;20140;-78
2024/01/15 00:34:11;;;;;;;27.47;11.50;;;;;-4.40;92786.00;;;;7404801;19;20200;-80
2024/01/15 00:36:51;;;;;;;28.30;12.57;;;;;-4.50;92791.00;;;;7406139;19;20161;-79
2024/01/15 00:39:25;;;;;;;24.43;11.73;;;;;-4.30;92786.00;;;;7406428;19;20136;-80
2024/01/15 00:41:54;;;;;;;31.67;12.60;;;;;-4.40;92798.00;;;;7407061;19;20152;-77
2024/01/15 00:44:27;;;;;;;21.43;9.63;;;;;-4.20;92796.00;;;;7403920;19;20140;-79
2024/01/15 00:46:55;;;;;;;24.93;11.50;;;;;-4.30;92791.00;;;;7404567;19;20163;-79
2024/01/15 00:49:31;;;;;;;27.30;12.20;;;;;-4.10;92788.00;;;;7404855;19;20639;-78
2024/01/15 00:52:06;;;;;;;24.63;11.00;;;;;-4.30;92790.00;;;;7405460;19;20469;-79
2024/01/15 00:54:36;;;;;;;29.60;12.17;;;;;-4.20;92802.00;;;;7406260;19;20140;-79
2024/01/15 00:57:10;;;;;;;27.90;11.77;;;;;-4.10;92795.00;;;;7405631;19;20169;-79
2024/01/15 00:59:37;;;;;;;26.27;11.70;;;;;-4.10;92801.00;;;;7403411;19;20131;-80
2024/01/15 01:02:05;;;;;;;24.60;11.13;;;;;-4.10;92808.00;;;;7405548;19;20609;-81
2024/01/15 01:04:39;;;;;;;27.93;11.40;;;;;-4.20;92807.00;;;;7404376;19;20151;-81
2024/01/15 01:07:08;;;;;;;24.10;10.20;;;;;-4.30;92800.00;;;;7406008;19;20176;-80
2024/01/15 01:09:42;;;;;;;23.73;11.30;;;;;-4.10;92803.00;;;;7402765;19;20462;-80
2024/01/15 01:12:16;;;;;;;24.53;10.43;;;;;-3.80;92803.00;;;;7404098;19;20139;-78
2024/01/15 01:14:53;;;;;;;24.17;10.30;;;;;-3.90;92798.00;;;;7402985;19;20158;-79
2024/01/15 01:17:27;;;;;;;25.13;10.67;;;;;-3.90;92798.00;;;;7403030;19;20136;-80
2024/01/15 01:20:04;;;;;;;28.43;11.20;;;;;-4.20;92787.00;;;;7405613;19;20139;-79
2024/01/15 01:22:32;;;;;;;22.07;9.90;;;;;-4.10;92802.00;;;;7403536;19;20144;-80
2024/01/15 01:25:06;;;;;;;24.80;11.60;;;;;-4.00;92785.00;;;;7400441;19;20134;-76
2024/01/15 01:27:34;;;;;;;23.87;10.13;;;;;-3.90;92786.00;;;;7399841;19;20215;-76
2024/01/15 01:30:02;;;;;;;25.23;10.37;;;;;-4.00;92790.00;;;;7401702;19;20159;-75
2024/01/15 01:32:37;;;;;;;22.40;9.87;;;;;-4.00;92790.00;;;;7401048;19;20151;-75
2024/01/15 01:35:25;;;;;;;24.53;10.80;;;;;-4.10;92784.00;;;;7389358;19;20193;-76
2024/01/15 01:37:59;;;;;;;23.83;10.60;;;;;-4.00;92783.00;;;;7399546;19;20594;-76
2024/01/15 01:40:33;;;;;;;26.67;10.47;;;;;-4.10;92790.00;;;;7401720;19;20135;-77
2024/01/15 01:43:04;;;;;;;25.83;10.03;;;;;-4.10;92779.00;;;;7400158;19;20136;-76
2024/01/15 01:45:38;;;;;;;22.57;10.07;;;;;-4.00;92778.00;;;;7401442;19;20146;-76
2024/01/15 01:48:13;;;;;;;22.13;10.37;;;;;-4.20;92782.00;;;;7401045;19;20143;-76
2024/01/15 01:50:49;;;;;;;21.97;10.07;;;;;-4.00;92779.00;;;;7403105;19;20475;-76
2024/01/15 01:53:16;;;;;;;24.90;10.73;;;;;-4.10;92774.00;;;;7400032;19;20155;-75
2024/01/15 01:55:45;;;;;;;23.80;10.30;;;;;-4.10;92775.00;;;;7398765;19;20151;-76
2024/01/15 01:58:21;;;;;;;25.33;10.90;;;;;-4.10;92780.00;;;;7399072;19;20197;-75
2024/01/15 02:00:55;;;;;;;22.43;10.13;;;;;-4.30;92746.00;;;;7399040;19;20122;-76
2024/01/15 02:03:23;;;;;;;23.77;10.20;;;;;-4.20;92788.00;;;;7400754;19;20137;-75
2024/01/15 02:06:01;;;;;;;26.30;10.83;;;;;-4.20;92776.00;;;;7398279;19;20507;-75
2024/01/15 02:08:28;;;;;;;27.13;11.47;;;;;-4.30;92792.00;;;;7399373;19;20141;-75
2024/01/15 02:11:03;;;;;;;20.57;9.97;;;;;-4.10;92768.00;;;;7399296;19;20130;-76
2024/01/15 02:13:31;;;;;;;25.00;10.40;;;;;-4.20;92772.00;;;;7400105;19;20121;-76
2024/01/15 02:16:07;;;;;;;27.13;11.20;;;;;-4.00;92769.00;;;;7399201;19;20169;-77
2024/01/15 02:18:46;;;;;;;27.43;11.00;;;;;-4.10;92778.00;;;;7398628;19;20143;-76
2024/01/15 02:21:20;;;;;;;19.73;9.80;;;;;-4.10;92768.00;;;;7399454;19;20704;-78
2024/01/15 02:23:48;;;;;;;27.23;10.80;;;;;-4.10;92759.00;;;;7397605;19;20220;-76
2024/01/15 02:26:23;;;;;;;28.57;11.33;;;;;-4.10;92777.00;;;;7398412;19;20158;-77
2024/01/15 02:28:51;;;;;;;22.30;9.87;;;;;-3.90;92773.00;;;;7399263;19;20609;-76
2024/01/15 02:31:25;;;;;;;24.93;10.77;;;;;-3.90;92761.00;;;;7397493;19;20164;-76
2024/01/15 02:33:54;;;;;;;24.23;10.77;;;;;-4.00;92774.00;;;;7398571;19;20141;-75
2024/01/15 02:36:37;;;;;;;21.43;10.17;;;;;-4.10;92774.00;;;;7398447;19;20157;-76
2024/01/15 02:39:11;;;;;;;22.47;10.47;;;;;-4.10;92774.00;;;;7397526;19;20133;-75
2024/01/15 02:41:46;;;;;;;19.87;9.30;;;;;-3.90;92772.00;;;;7397646;19;20163;-75
2024/01/15 02:44:14;;;;;;;19.97;9.80;;;;;-3.80;92772.00;;;;7396697;19;20143;-76
2024/01/15 02:46:49;;;;;;;21.97;8.83;;;;;-3.90;92765.00;;;;7397540;19;20150;-74
2024/01/15 02:49:23;;;;;;;19.83;9.50;;;;;-3.80;92770.00;;;;7398753;19;20135;-76
2024/01/15 02:51:58;;;;;;;23.60;9.07;;;;;-3.80;92769.00;;;;7397097;19;20157;-75
2024/01/15 02:54:33;;;;;;;19.43;9.47;;;;;-3.80;92760.00;;;;7399160;19;20131;-75
2024/01/15 02:57:01;;;;;;;22.83;10.03;;;;;-3.80;92761.00;;;;7397195;19;20144;-76
2024/01/15 02:59:35;;;;;;;20.60;9.33;;;;;-3.80;92765.00;;;;7398005;19;20155;-75
2024/01/15 03:02:03;;;;;;;20.30;8.33;;;;;-4.00;92757.00;;;;7398002;19;20158;-74
2024/01/15 03:04:30;;;;;;;24.50;8.37;;;;;-3.80;92777.00;;;;7398740;19;20135;-76
2024/01/15 03:07:04;;;;;;;21.90;9.13;;;;;-3.70;92779.00;;;;7399378;19;20599;-75
2024/01/15 03:09:39;;;;;;;18.73;8.57;;;;;-3.70;92774.00;;;;7398847;19;20135;-75
2024/01/15 03:12:18;;;;;;;19.03;8.67;;;;;-3.60;92783.00;;;;7397315;19;20628;-75
2024/01/15 03:14:46;;;;;;;19.77;8.70;;;;;-3.60;92774.00;;;;7402457;19;20470;-77
2024/01/15 03:17:21;;;;;;;21.17;8.10;;;;;-3.60;92771.00;;;;7406268;19;20143;-76
2024/01/15 03:19:55;;;;;;;17.30;8.50;;;;;-3.50;92770.00;;;;7403107;19;20650;-75
2024/01/15 03:22:24;;;;;;;18.67;7.93;;;;;-3.50;92764.00;;;;7405916;19;20132;-75
2024/01/15 03:25:00;;;;;;;17.50;8.47;;;;;-3.50;92754.00;;;;7404329;19;20150;-76
2024/01/15 03:27:28;;;;;;;17.97;7.63;;;;;-3.60;92767.00;;;;7403766;19;20212;-75
2024/01/15 03:30:03;;;;;;;17.23;7.10;;;;;-3.50;92767.00;;;;7405399;19;20146;-75
2024/01/15 03:32:30;;;;;;;12.03;5.97;;;;;-3.50;92769.00;;;;7404203;19;20140;-75
2024/01/15 03:35:12;;;;;;;17.97;7.03;;;;;-3.60;92765.00;;;;7404000;19;20155;-75
2024/01/15 03:37:40;;;;;;;15.10;6.77;;;;;-3.50;92760.00;;;;7403394;19;20151;-77
2024/01/15 03:40:13;;;;;;;13.30;6.80;;;;;-3.50;92768.00;;;;7401293;19;20161;-75
2024/01/15 03:42:44;;;;;;;12.97;6.60;;;;;-3.40;92753.00;;;;7403409;19;20239;-77
2024/01/15 03:45:17;;;;;;;18.40;7.60;;;;;-3.40;92758.00;;;;7403237;19;20148;-75
2024/01/15 03:47:45;;;;;;;14.87;7.40;;;;;-3.60;92758.00;;;;7403745;19;20592;-76
2024/01/15 03:50:14;;;;;;;15.53;7.60;;;;;-3.40;92752.00;;;;7403235;19;20167;-76
2024/01/15 03:52:48;;;;;;;12.93;6.87;;;;;-3.50;92754.00;;;;7403137;19;20207;-76
2024/01/15 03:55:22;;;;;;;13.57;7.07;;;;;-3.50;92754.00;;;;7403327;19;20160;-74
2024/01/15 03:57:50;;;;;;;14.10;6.90;;;;;-3.50;92742.00;;;;7402636;19;20761;-75
2024/01/15 04:00:24;;;;;;;14.53;6.87;;;;;-3.40;92739.00;;;;7403417;19;20127;-76
2024/01/15 04:02:51;;;;;;;14.33;6.07;;;;;-3.50;92730.00;;;;7401845;19;20501;-75
2024/01/15 04:05:26;;;;;;;15.33;6.80;;;;;-3.40;92734.00;;;;7402725;19;20140;-76
2024/01/15 04:07:55;;;;;;;16.77;6.97;;;;;-3.30;92736.00;;;;7403052;19;20140;-75
2024/01/15 04:10:29;;;;;;;11.10;5.47;;;;;-3.40;92733.00;;;;7402335;19;20157;-76
2024/01/15 04:12:59;;;;;;;10.10;5.67;;;;;-3.60;92739.00;;;;7402579;19;20145;-75
2024/01/15 04:15:33;;;;;;;12.20;5.90;;;;;-3.30;92737.00;;;;7402130;19;20913;-75
2024/01/15 04:18:08;;;;;;;11.87;6.00;;;;;-3.40;92722.00;;;;7404201;19;20193;-76
2024/01/15 04:20:36;;;;;;;12.03;6.17;;;;;-3.50;92728.00;;;;7402042;19;20636;-75
2024/01/15 04:23:09;;;;;;;11.67;5.40;;;;;-3.70;92730.00;;;;7404276;19;20157;-76
2024/01/15 04:25:45;;;;;;;14.40;5.90;;;;;-3.50;92720.00;;;;7402900;19;20128;-76
2024/01/15 04:28:20;;;;;;;15.03;5.77;;;;;-3.50;92726.00;;;;7403644;19;20124;-75
2024/01/15 04:30:47;;;;;;;10.00;5.90;;;;;-3.50;92726.00;;;;7403533;19;20454;-75
2024/01/15 04:33:22;;;;;;;9.93;5.77;;;;;-3.50;92721.00;;;;7404376;19;20149;-74
2024/01/15 04:36:06;;;;;;;9.67;4.80;;;;;-3.50;92720.00;;;;7400724;19;20220;-76
2024/01/15 04:38:47;;;;;;;8.40;5.10;;;;;-3.60;92705.00;;;;7400543;19;20137;-75
2024/01/15 04:41:21;;;;;;;11.60;5.30;;;;;-3.40;92728.00;;;;7399172;19;20145;-76
2024/01/15 04:43:49;;;;;;;9.80;5.37;;;;;-3.50;92724.00;;;;7397162;19;20191;-76
2024/01/15 04:46:23;;;;;;;15.90;5.13;;;;;-3.60;92725.00;;;;7399010;19;20147;-77
2024/01/15 04:48:51;;;;;;;9.13;5.13;;;;;-3.60;92723.00;;;;7398872;19;20600;-76
2024/01/15 04:51:27;;;;;;;9.80;5.10;;;;;-3.40;92718.00;;;;7401439;19;20655;-75
2024/01/15 04:54:02;;;;;;;9.03;5.10;;;;;-3.50;92721.00;;;;7400446;19;20160;-75
2024/01/15 04:56:35;;;;;;;12.23;5.40;;;;;-3.50;92719.00;;;;7400949;19;20137;-75
2024/01/15 04:59:10;;;;;;;9.73;5.23;;;;;-3.50;92721.00;;;;7400537;19;20133;-75
2024/01/15 05:01:47;;;;;;;10.30;5.37;;;;;-3.30;92721.00;;;;7397467;19;20133;-75
2024/01/15 05:04:21;;;;;;;10.07;5.23;;;;;-3.40;92715.00;;;;7400185;19;20180;-75
2024/01/15 05:06:48;;;;;;;10.93;5.47;;;;;-3.30;92724.00;;;;7398982;19;20170;-75
2024/01/15 05:09:23;;;;;;;9.13;4.80;;;;;-3.40;92724.00;;;;7399019;19;20131;-76
2024/01/15 05:11:59;;;;;;;11.63;5.80;;;;;-3.40;92714.00;;;;7398088;19;20143;-75
2024/01/15 05:14:27;;;;;;;9.73;5.13;;;;;-3.40;92715.00;;;;7398835;19;20153;-76
2024/01/15 05:17:02;;;;;;;11.00;5.13;;;;;-3.40;92718.00;;;;7397885;19;20144;-76
2024/01/15 05:19:39;;;;;;;8.77;4.87;;;;;-3.50;92713.00;;;;7398567;19;20137;-76
2024/01/15 05:22:13;;;;;;;9.53;4.87;;;;;-3.30;92699.00;;;;7397895;19;20745;-76
2024/01/15 05:24:42;;;;;;;9.13;5.20;;;;;-3.50;92698.00;;;;7400079;19;20622;-75
2024/01/15 05:27:16;;;;;;;8.63;4.93;;;;;-3.40;92697.00;;;;7399230;19;20147;-75
2024/01/15 05:29:50;;;;;;;6.90;4.30;;;;;-3.30;92703.00;;;;7397951;19;20117;-75
2024/01/15 05:32:21;;;;;;;7.07;4.03;;;;;-3.30;92698.00;;;;7399982;19;20136;-76
2024/01/15 05:35:09;;;;;;;8.30;4.90;;;;;-3.20;92696.00;;;;6884383;19;9730642;-75
2024/01/15 05:37:45;;;;;;;8.63;4.57;;;;;-3.30;92694.00;;;;7398183;19;20137;-75
2024/01/15 05:40:19;;;;;;;7.53;4.30;;;;;-3.40;92694.00;;;;7400327;19;20454;-75
2024/01/15 05:42:46;;;;;;;7.50;4.20;;;;;-3.30;92690.00;;;;7401286;19;20141;-74
2024/01/15 05:45:20;;;;;;;10.10;4.30;;;;;-3.20;92701.00;;;;7399595;19;20598;-75
2024/01/15 05:47:56;;;;;;;7.17;4.17;;;;;-3.20;92702.00;;;;7401099;19;20617;-76
2024/01/15 05:50:30;;;;;;;6.20;3.87;;;;;-3.20;92690.00;;;;7401051;19;20136;-75
2024/01/15 05:53:00;;;;;;;8.80;4.10;;;;;-3.20;92688.00;;;;7400946;19;20131;-76
2024/01/15 05:55:27;;;;;;;5.30;3.80;;;;;-3.30;92707.00;;;;7394391;19;20201;-76
2024/01/15 05:58:07;;;;;;;6.70;3.60;;;;;-3.20;92692.00;;;;7391638;19;20203;-76
2024/01/15 06:00:35;;;;;;;7.13;3.90;;;;;-3.10;92694.00;;;;7389195;19;20178;-76
2024/01/15 06:03:10;;;;;;;5.87;3.77;;;;;-3.20;92674.00;;;;7390846;19;20157;-75
2024/01/15 06:05:37;;;;;;;8.37;4.00;;;;;-3.10;92682.00;;;;7390604;19;20132;-79
2024/01/15 06:08:14;;;;;;;8.57;4.13;;;;;-3.20;92683.00;;;;7389539;19;20136;-78
2024/01/15 06:10:42;;;;;;;7.77;3.80;;;;;-3.20;92687.00;;;;7388328;19;20135;-80
2024/01/15 06:13:17;;;;;;;5.83;3.40;;;;;-3.20;92678.00;;;;7390305;19;20155;-78
2024/01/15 06:15:45;;;;;;;8.60;3.80;;;;;-3.20;92669.00;;;;7390114;19;20139;-79
2024/01/15 06:18:19;;;;;;;7.07;3.90;;;;;-3.00;92683.00;;;;7389761;19;20612;-79
2024/01/15 06:20:47;;;;;;;5.20;3.27;;;;;-3.10;92678.00;;;;7391309;19;20129;-79
2024/01/15 06:23:22;;;;;;;10.10;3.53;;;;;-3.10;92678.00;;;;7390704;19;20128;-78
2024/01/15 06:25:56;;;;;;;5.93;3.20;;;;;-3.10;92675.00;;;;7388490;19;20148;-78
2024/01/15 06:28:33;;;;;;;4.93;3.33;;;;;-3.10;92684.00;;;;7390059;19;20203;-78
2024/01/15 06:31:00;;;;;;;4.30;3.00;;;;;-3.10;92671.00;;;;7388481;19;20659;-78
2024/01/15 06:33:29;;;;;;;7.13;3.40;;;;;-3.20;92668.00;;;;7386679;19;20176;-79
2024/01/15 06:36:10;;;;;;;5.43;3.30;;;;;-3.00;92666.00;;;;7388866;19;20176;-80
2024/01/15 06:38:51;;;;;;;5.93;3.10;;;;;-3.00;92664.00;;;;7388200;19;20175;-79
2024/01/15 06:41:27;;;;;;;6.30;3.27;;;;;-3.20;92654.00;;;;7388002;19;20624;-79
2024/01/15 06:43:55;;;;;;;6.47;3.10;;;;;-3.40;92666.00;;;;7388010;19;20608;-78
2024/01/15 06:46:30;;;;;;;8.13;3.77;;;;;-3.60;92673.00;;;;7389449;19;20502;-78
2024/01/15 06:48:57;;;;;;;6.17;3.40;;;;;-3.60;92671.00;;;;7387546;19;20800;-78
2024/01/15 06:51:32;;;;;;;6.43;3.50;;;;;-3.60;92658.00;;;;7387812;19;20167;-80
2024/01/15 06:54:06;;;;;;;6.73;3.57;;;;;-3.40;92652.00;;;;7390167;19;20477;-80
2024/01/15 06:56:40;;;;;;;6.70;3.17;;;;;-3.30;92655.00;;;;7388347;19;20219;-79
2024/01/15 06:59:08;;;;;;;7.73;3.60;;;;;-3.20;92655.00;;;;7390227;19;20192;-79
2024/01/15 07:01:46;;;;;;;5.43;3.30;;;;;-3.30;92657.00;;;;7390110;19;20152;-79
2024/01/15 07:04:14;;;;;;;6.50;3.07;;;;;-3.20;92650.00;;;;7392372;19;20148;-79
2024/01/15 07:06:50;;;;;;;6.03;3.20;;;;;-3.20;92656.00;;;;7392520;19;20479;-78
2024/01/15 07:09:18;;;;;;;7.50;3.27;;;;;-3.40;92642.00;;;;7391499;19;20138;-78
2024/01/15 07:11:56;;;;;;;4.83;2.83;;;;;-3.40;92647.00;;;;7391871;19;20139;-78
2024/01/15 07:14:26;;;;;;;7.40;3.63;;;;;-3.30;92651.00;;;;7390767;19;20540;-76
2024/01/15 07:17:01;;;;;;;6.43;3.17;;;;;-3.20;92654.00;;;;7391335;19;20135;-75
2024/01/15 07:19:28;;;;;;;5.43;3.27;;;;;-3.30;92651.00;;;;7389977;19;20501;-76
2024/01/15 07:22:03;;;;;;;7.23;3.10;;;;;-3.20;92652.00;;;;7387047;19;20136;-76
2024/01/15 07:24:37;;;;;;;7.97;3.57;;;;;-3.30;92665.00;;;;7390687;19;20132;-74
2024/01/15 07:27:11;;;;;;;5.87;3.00;;;;;-3.20;92646.00;;;;7389076;19;20607;-76
2024/01/15 07:29:40;;;;;;;6.00;2.97;;;;;-3.10;92657.00;;;;7389509;19;20148;-76
2024/01/15 07:32:15;;;;;;;5.77;3.20;;;;;-3.20;92658.00;;;;7389068;19;20147;-75
2024/01/15 07:34:56;;;;;;;6.03;3.23;;;;;-3.10;92655.00;;;;7388385;19;20499;-76
2024/01/15 07:37:30;;;;;;;8.07;3.27;;;;;-3.10;92663.00;;;;7387828;19;20144;-78
2024/01/15 07:40:08;;;;;;;7.20;3.13;;;;;-3.00;92660.00;;;;7389327;19;20148;-75
2024/01/15 07:42:42;;;;;;;4.47;3.13;;;;;-3.10;92659.00;;;;7389630;19;20156;-77
2024/01/15 07:45:18;;;;;;;6.80;2.83;;;;;-2.90;92656.00;;;;7386844;19;20135;-76
2024/01/15 07:47:47;;;;;;;7.27;3.37;;;;;-2.90;92662.00;;;;7389479;19;20133;-80
2024/01/15 07:50:22;;;;;;;7.03;3.13;;;;;-2.90;92656.00;;;;7388476;19;20200;-75
2024/01/15 07:52:57;;;;;;;5.73;3.20;;;;;-2.70;92655.00;;;;7391248;19;20164;-76
2024/01/15 07:55:31;;;;;;;6.97;3.40;;;;;-2.90;92664.00;;;;7390168;19;20155;-79
2024/01/15 07:58:06;;;;;;;5.57;2.60;;;;;-2.70;92661.00;;;;7392686;19;20151;-76
2024/01/15 08:00:44;;;;;;;5.43;3.10;;;;;-2.70;92645.00;;;;7392986;19;20152;-77
2024/01/15 08:03:12;;;;;;;4.80;2.77;;;;;-2.80;92664.00;;;;7395132;19;20185;-75
2024/01/15 08:05:50;;;;;;;8.33;3.23;;;;;-2.60;92658.00;;;;7397780;19;20153;-77
2024/01/15 08:08:18;;;;;;;6.10;3.17;;;;;-2.60;92669.00;;;;7397598;19;20460;-77
2024/01/15 08:10:53;;;;;;;5.37;3.03;;;;;-2.70;92673.00;;;;7396011;19;20124;-75
2024/01/15 08:13:30;;;;;;;5.90;2.97;;;;;-2.60;92659.00;;;;7393938;19;20687;-76
2024/01/15 08:16:05;;;;;;;6.20;3.20;;;;;-2.60;92670.00;;;;7395622;19;20128;-77
2024/01/15 08:18:33;;;;;;;6.83;2.83;;;;;-2.60;92666.00;;;;7393764;19;20165;-76
2024/01/15 08:21:07;;;;;;;6.87;3.10;;;;;-2.60;92656.00;;;;7395030;19;20500;-77
2024/01/15 08:23:35;;;;;;;5.53;2.97;;;;;-2.50;92662.00;;;;7394786;19;20149;-75
2024/01/15 08:26:11;;;;;;;6.67;3.20;;;;;-2.60;92664.00;;;;7395868;19;20144;-75
2024/01/15 08:28:44;;;;;;;6.13;3.33;;;;;-2.60;92664.00;;;;7394043;19;20140;-75
2024/01/15 08:31:20;;;;;;;8.63;3.33;;;;;-2.50;92664.00;;;;7390826;19;20615;-76
2024/01/15 08:33:55;;;;;;;7.67;3.00;;;;;-2.60;92666.00;;;;7392464;19;20141;-75
2024/01/15 08:36:36;;;;;;;5.43;3.00;;;;;-2.50;92664.00;;;;7392202;19;20224;-75
2024/01/15 08:39:12;;;;;;;5.27;3.17;;;;;-2.50;92658.00;;;;7393081;19;20639;-75
2024/01/15 08:41:47;;;;;;;5.10;3.20;;;;;-2.50;92657.00;;;;7392385;19;20158;-75
2024/01/15 08:44:20;;;;;;;8.03;3.07;;;;;-2.50;92657.00;;;;7392163;19;20176;-75
2024/01/15 08:46:56;;;;;;;5.57;2.90;;;;;-2.40;92657.00;;;;7390042;19;20137;-75
2024/01/15 08:49:24;;;;;;;7.97;4.00;;;;;-2.40;92650.00;;;;7392705;19;20525;-75
2024/01/15 08:51:58;;;;;;;7.83;3.83;;;;;-2.50;92647.00;;;;7391539;19;20481;-75
2024/01/15 08:54:26;;;;;;;6.77;2.80;;;;;-2.50;92650.00;;;;7392104;19;20162;-74
2024/01/15 08:56:59;;;;;;;6.80;3.73;;;;;-2.60;92654.00;;;;7390026;19;20141;-75
2024/01/15 08:59:36;;;;;;;6.37;3.67;;;;;-2.40;92665.00;;;;7392948;19;20144;-75
2024/01/15 09:02:09;;;;;;;5.97;3.23;;;;;-2.30;92652.00;;;;7391622;19;20624;-75
2024/01/15 09:04:43;;;;;;;6.27;3.70;;;;;-2.30;92650.00;;;;7394083;19;20141;-75
2024/01/15 09:07:18;;;;;;;7.33;3.83;;;;;-2.30;92651.00;;;;7391734;19;20152;-74
2024/01/15 09:09:53;;;;;;;4.93;3.57;;;;;-2.20;92647.00;;;;7392597;19;20577;-75
2024/01/15 09:12:22;;;;;;;6.47;3.57;;;;;-2.10;92632.00;;;;7388438;19;20145;-75
2024/01/15 09:14:56;;;;;;;5.53;3.10;;;;;-2.00;92630.00;;;;7391874;19;20156;-79
2024/01/15 09:17:24;;;;;;;5.70;3.67;;;;;-1.90;92617.00;;;;7391256;19;20144;-76
2024/01/15 09:19:58;;;;;;;5.10;2.67;;;;;-1.70;92619.00;;;;7391518;19;20148;-78
2024/01/15 09:22:26;;;;;;;7.47;3.27;;;;;-1.80;92620.00;;;;7391677;19;20148;-77
2024/01/15 09:25:00;;;;;;;4.77;3.03;;;;;-1.70;92619.00;;;;7391261;19;20205;-76
2024/01/15 09:27:28;;;;;;;9.07;2.93;;;;;-1.60;92623.00;;;;7391311;19;20137;-75
2024/01/15 09:30:04;;;;;;;4.87;2.93;;;;;-1.70;92625.00;;;;7390012;19;20220;-75
2024/01/15 09:32:32;;;;;;;5.53;3.33;;;;;-1.70;92622.00;;;;7391077;19;20212;-76
2024/01/15 09:35:20;;;;;;;4.07;2.57;;;;;-1.70;92628.00;;;;7390239;19;20148;-79
2024/01/15 09:37:54;;;;;;;4.07;2.63;;;;;-1.70;92620.00;;;;7391866;19;20129;-78
2024/01/15 09:40:33;;;;;;;4.07;2.70;;;;;-1.60;92633.00;;;;7390252;19;20190;-79
2024/01/15 09:43:02;;;;;;;4.67;2.73;;;;;-1.80;92620.00;;;;7390403;19;20155;-78
2024/01/15 09:45:37;;;;;;;5.47;2.80;;;;;-1.60;92621.00;;;;7390851;19;20219;-79
2024/01/15 09:48:07;;;;;;;5.80;2.60;;;;;-1.70;92625.00;;;;7389301;19;20248;-78
2024/01/15 09:50:42;;;;;;;4.97;3.10;;;;;-1.70;92633.00;;;;7390677;19;20482;-79
2024/01/15 09:53:11;;;;;;;4.77;2.83;;;;;-1.90;92630.00;;;;7392179;19;20200;-79
2024/01/15 09:55:50;;;;;;;4.73;2.67;;;;;-1.70;92628.00;;;;7389946;19;20148;-79
2024/01/15 09:58:24;;;;;;;6.30;2.67;;;;;-1.60;92635.00;;;;7389999;19;20496;-80
2024/01/15 10:01:01;;;;;;;4.37;2.83;;;;;-1.80;92630.00;;;;7391294;19;20585;-79
2024/01/15 10:03:39;;;;;;;5.93;3.30;;;;;-1.90;92627.00;;;;7390180;19;20500;-80
2024/01/15 10:06:20;;;;;;;4.93;2.87;;;;;-1.80;92610.00;;;;7390293;19;20220;-79
2024/01/15 10:08:50;;;;;;;6.50;3.43;;;;;-1.80;92624.00;;;;7392672;19;20136;-79
2024/01/15 10:11:26;;;;;;;3.60;2.50;;;;;-1.80;92625.00;;;;7396347;19;20144;-79
2024/01/15 10:13:57;;;;;;;5.43;3.07;;;;;-2.10;92619.00;;;;7389843;19;20137;-80
2024/01/15 10:16:31;;;;;;;4.83;2.90;;;;;-2.00;92618.00;;;;7389584;19;20141;-79
2024/01/15 10:19:07;;;;;;;6.70;3.37;;;;;-1.90;92620.00;;;;7391657;19;20473;-79
2024/01/15 10:21:41;;;;;;;3.70;2.80;;;;;-2.00;92615.00;;;;7391707;19;20148;-79
2024/01/15 10:24:09;;;;;;;4.53;3.10;;;;;-1.90;92613.00;;;;7389691;19;20184;-78
2024/01/15 10:26:44;;;;;;;7.47;3.00;;;;;-2.00;92609.00;;;;7390580;19;20591;-78
2024/01/15 10:29:20;;;;;;;5.53;3.10;;;;;-2.00;92605.00;;;;7389821;19;20144;-78
2024/01/15 10:31:54;;;;;;;5.23;3.30;;;;;-1.90;92610.00;;;;7389926;19;20144;-79
2024/01/15 10:34:30;;;;;;;5.30;3.10;;;;;-1.90;92609.00;;;;7389932;19;20161;-79
2024/01/15 10:37:05;;;;;;;6.93;3.20;;;;;-1.90;92610.00;;;;7396406;19;20191;-79
2024/01/15 10:39:39;;;;;;;5.40;3.10;;;;;-2.20;92605.00;;;;7390837;19;20626;-78
2024/01/15 10:42:08;;;;;;;5.67;3.73;;;;;-2.00;92594.00;;;;7391670;19;20157;-79
2024/01/15 10:44:48;;;;;;;7.20;3.13;;;;;-2.10;92590.00;;;;7393041;19;20148;-79
2024/01/15 10:47:24;;;;;;;6.07;2.93;;;;;-2.10;92588.00;;;;7392909;19;20472;-80
2024/01/15 10:49:59;;;;;;;5.33;3.20;;;;;-2.20;92584.00;;;;7395147;19;20650;-80
2024/01/15 10:52:29;;;;;;;5.27;3.17;;;;;-2.30;92588.00;;;;7395493;19;20155;-80
2024/01/15 10:54:59;;;;;;;5.53;3.43;;;;;-2.20;92576.00;;;;7395165;19;20545;-81
2024/01/15 10:57:40;;;;;;;5.17;3.40;;;;;-2.30;92586.00;;;;7391884;19;20144;-80
2024/01/15 11:00:08;;;;;;;7.23;3.67;;;;;-2.30;92576.00;;;;7389924;19;20145;-81
2024/01/15 11:02:44;;;;;;;7.53;3.10;;;;;-2.10;92581.00;;;;7390799;19;20177;-81
2024/01/15 11:05:22;;;;;;;5.30;2.93;;;;;-2.10;92581.00;;;;7389970;19;20161;-81
2024/01/15 11:07:50;;;;;;;5.97;3.17;;;;;-2.10;92573.00;;;;7391956;19;20169;-80
2024/01/15 11:10:51;;;;;;;7.50;3.20;;;;;-2.00;92579.00;;;;7390511;19;20173;-81
2024/01/15 11:13:32;;;;;;;4.87;3.07;;;;;-2.10;92577.00;;;;7392308;19;20166;-81
2024/01/15 11:16:02;;;;;;;5.30;3.00;;;;;-2.10;92577.00;;;;7389213;19;20148;-80
2024/01/15 11:18:56;;;;;;;7.53;3.80;;;;;-2.00;92575.00;;;;7391071;19;20132;-80
2024/01/15 11:21:27;;;;;;;5.80;3.67;;;;;-2.10;92571.00;;;;7389234;19;20152;-81
2024/01/15 11:24:02;;;;;;;5.27;3.20;;;;;-2.10;92578.00;;;;7389436;19;20149;-81
2024/01/15 11:26:46;;;;;;;4.83;2.80;;;;;-2.10;92584.00;;;;7389746;19;20580;-81
2024/01/15 11:29:34;;;;;;;4.97;2.60;;;;;-2.30;92578.00;;;;7391229;19;20145;-81
2024/01/15 11:32:10;;;;;;;6.07;2.77;;;;;-2.00;92577.00;;;;7390285;19;20139;-81
2024/01/15 11:34:57;;;;;;;4.17;2.40;;;;;-2.00;92571.00;;;;7391615;19;20147;-81
2024/01/15 11:38:05;;;;;;;4.03;2.47;;;;;-1.90;92565.00;;;;7395776;19;20180;-79
2024/01/15 11:40:42;;;;;;;4.17;2.50;;;;;-2.10;92560.00;;;;7396346;19;20187;-80
2024/01/15 11:43:12;;;;;;;3.80;2.50;;;;;-1.90;92568.00;;;;7396114;19;20176;-79
2024/01/15 11:45:52;;;;;;;2.90;2.17;;;;;-1.90;92569.00;;;;7398643;19;20141;-79
2024/01/15 11:48:43;;;;;;;4.10;2.33;;;;;-1.80;92570.00;;;;7398230;19;20137;-80
2024/01/15 11:51:12;;;;;;;5.07;2.30;;;;;-1.80;92571.00;;;;7397015;19;20145;-81
2024/01/15 11:53:53;;;;;;;4.43;2.23;;;;;-1.90;92568.00;;;;7396995;19;20152;-82
2024/01/15 11:56:27;;;;;;;2.83;1.87;;;;;-1.80;92581.00;;;;7394814;19;20148;-81
2024/01/15 11:58:55;;;;;;;2.70;1.80;;;;;-1.90;92567.00;;;;7397582;19;20137;-81
2024/01/15 12:01:34;;;;;;;4.27;2.00;;;;;-1.70;92565.00;;;;7396355;19;20172;-80
2024/01/15 12:04:02;;;;;;;3.97;2.20;;;;;-1.80;92570.00;;;;7396536;19;20160;-78
2024/01/15 12:06:32;;;;;;;3.17;2.00;;;;;-1.60;92571.00;;;;7394669;19;20190;-81
2024/01/15 12:09:09;;;;;;;2.10;1.70;;;;;-1.80;92569.00;;;;7396523;19;20135;-81
2024/01/15 12:11:42;;;;;;;2.63;1.80;;;;;-1.90;92577.00;;;;7396670;19;20799;-82
2024/01/15 12:14:17;;;;;;;3.27;1.70;;;;;-1.60;92572.00;;;;7396931;19;20213;-81
2024/01/15 12:16:45;;;;;;;2.60;1.60;;;;;-1.70;92575.00;;;;7395733;19;22672;-80
2024/01/15 12:19:20;;;;;;;3.07;1.83;;;;;-1.40;92570.00;;;;7394598;19;20588;-81
2024/01/15 12:21:47;;;;;;;2.10;1.43;;;;;-1.80;92571.00;;;;7395491;19;20510;-79
2024/01/15 12:24:22;;;;;;;2.70;1.57;;;;;-1.80;92573.00;;;;7395803;19;20155;-82
2024/01/15 12:26:49;;;;;;;2.33;1.47;;;;;-1.70;92565.00;;;;7396699;19;20188;-81
2024/01/15 12:29:24;;;;;;;1.40;1.30;;;;;-1.90;92584.00;;;;7396186;19;20628;-82
2024/01/15 12:31:53;;;;;;;1.80;1.40;;;;;-1.80;92563.00;;;;7396830;19;20138;-79
2024/01/15 12:34:32;;;;;;;2.17;1.40;;;;;-1.70;92579.00;;;;7395622;19;20132;-79
2024/01/15 12:37:19;;;;;;;2.33;1.43;;;;;-1.60;92574.00;;;;7395126;19;20517;-80
2024/01/15 12:39:48;;;;;;;2.47;1.83;;;;;-1.70;92569.00;;;;7397985;19;20125;-80
2024/01/15 12:42:22;;;;;;;3.27;1.97;;;;;-1.60;92566.00;;;;7395809;19;20136;-82